KORL/ORL METAR and TAF weather

Enter ICAO airport designator
Station Type Date Time Source
KORL METAR 2021/05/14 12:53 UTC NOAA

KORL 141253Z 35008KT 10SM CLR 21/16 A3013 RMK AO2 SLP205 T02060161


Station Type Date Time Source
KORL Decoded METAR 2021/05/14 12:53 UTC NOAA

ORLANDO EXECUTIVE AIRPORT, FL, United States (KORL) 28-33N 081-20W 37M
May 14, 2021 - 08:53 AM EDT / 2021.05.14 1253 UTC
Wind: from the N (350 degrees) at 9 MPH (8 KT):0
Visibility: 10 mile(s):0
Sky conditions: clear
Temperature: 69.1 F (20.6 C)
Dew Point: 61.0 F (16.1 C)
Relative Humidity: 75%
Pressure (altimeter): 30.13 in. Hg (1020 hPa)
ob: KORL 141253Z 35008KT 10SM CLR 21/16 A3013 RMK AO2 SLP205 T02060161
cycle: 13

Station Type Date Time Source
KORL TAF UTC NOAA

Error!

Example: see airport list